createdAt,value
2017-09-24T00:00:49.480Z,20.50
2017-09-24T00:04:14.677Z,20.50
2017-09-24T00:07:40.524Z,20.50
2017-09-24T00:11:06.081Z,20.50
2017-09-24T00:14:32.276Z,20.50
2017-09-24T00:17:58.815Z,20.50
2017-09-24T00:21:25.936Z,20.50
2017-09-24T00:24:52.505Z,20.50
2017-09-24T00:28:19.430Z,20.40
2017-09-24T00:31:45.131Z,20.40
2017-09-24T00:35:10.858Z,20.40
2017-09-24T00:38:37.629Z,20.40
2017-09-24T00:42:03.954Z,20.40
2017-09-24T00:45:32.590Z,20.30
2017-09-24T00:48:58.876Z,20.30
2017-09-24T00:52:25.861Z,20.30
2017-09-24T00:55:52.114Z,20.30
2017-09-24T00:59:18.302Z,20.30
2017-09-24T01:02:43.713Z,20.30
2017-09-24T01:06:09.276Z,20.30
2017-09-24T01:09:35.100Z,20.30
2017-09-24T01:13:00.657Z,20.30
2017-09-24T01:16:26.201Z,20.30
2017-09-24T01:19:51.654Z,20.20
2017-09-24T01:23:17.931Z,20.20
2017-09-24T01:26:43.531Z,20.20
2017-09-24T01:30:10.794Z,20.20
2017-09-24T01:33:36.532Z,20.20
2017-09-24T01:37:02.223Z,20.20
2017-09-24T01:40:27.903Z,20.20
2017-09-24T01:43:54.678Z,20.10
2017-09-24T01:47:20.930Z,20.20
2017-09-24T01:50:46.419Z,20.20
2017-09-24T01:54:12.197Z,20.10
2017-09-24T01:57:37.618Z,20.10
2017-09-24T02:01:07.480Z,20.10
2017-09-24T02:04:32.901Z,20.10
2017-09-24T02:07:59.146Z,20.10
2017-09-24T02:11:25.770Z,20.10
2017-09-24T02:14:51.613Z,20.00
2017-09-24T02:18:17.747Z,20.00
2017-09-24T02:21:43.658Z,20.00
2017-09-24T02:25:09.115Z,20.00
2017-09-24T02:28:53.076Z,20.00
2017-09-24T02:32:20.227Z,20.00
2017-09-24T02:35:45.957Z,20.00
2017-09-24T02:39:11.473Z,20.00
2017-09-24T02:42:37.050Z,20.00
2017-09-24T02:46:02.461Z,20.00
2017-09-24T02:49:28.286Z,20.00
2017-09-24T02:52:53.964Z,19.90
2017-09-24T02:56:19.349Z,20.00
2017-09-24T02:59:45.555Z,19.90
2017-09-24T03:03:11.116Z,19.90
2017-09-24T03:06:36.367Z,19.90
2017-09-24T03:10:02.215Z,19.90
2017-09-24T03:13:27.557Z,19.90
2017-09-24T03:16:53.089Z,19.90
2017-09-24T03:20:18.676Z,19.90
2017-09-24T03:23:44.628Z,19.90
2017-09-24T03:27:10.581Z,19.90
2017-09-24T03:30:35.975Z,19.90
2017-09-24T03:34:02.272Z,19.80
2017-09-24T03:37:28.104Z,19.80
2017-09-24T03:40:53.534Z,19.80
2017-09-24T03:44:19.310Z,19.70
2017-09-24T03:47:44.718Z,19.70
2017-09-24T03:51:10.185Z,19.70
2017-09-24T03:54:35.666Z,19.70
2017-09-24T03:58:01.975Z,19.70
2017-09-24T04:01:27.475Z,19.60
2017-09-24T04:04:52.985Z,19.60
2017-09-24T04:08:19.409Z,19.50
2017-09-24T04:11:44.779Z,19.60
2017-09-24T04:15:14.247Z,19.60
2017-09-24T04:18:41.125Z,19.50
2017-09-24T04:22:06.503Z,19.50
2017-09-24T04:25:33.915Z,19.50
2017-09-24T04:28:59.414Z,19.50
2017-09-24T04:32:24.833Z,19.50
2017-09-24T04:35:50.224Z,19.50
2017-09-24T04:39:15.900Z,19.50
2017-09-24T04:42:41.346Z,19.40
2017-09-24T04:46:07.223Z,19.40
2017-09-24T04:49:32.810Z,19.40
2017-09-24T04:52:58.045Z,19.40
2017-09-24T04:56:24.333Z,19.40
2017-09-24T04:59:49.591Z,19.30
2017-09-24T05:03:15.175Z,19.40
2017-09-24T05:06:40.655Z,19.40
2017-09-24T05:10:06.031Z,19.30
2017-09-24T05:13:31.942Z,19.30
2017-09-24T05:16:57.360Z,19.30
2017-09-24T05:20:24.208Z,19.30
2017-09-24T05:23:49.602Z,19.30
2017-09-24T05:27:15.061Z,19.30
2017-09-24T05:30:40.583Z,19.30
2017-09-24T05:34:06.224Z,19.30
2017-09-24T05:37:31.606Z,19.30
2017-09-24T05:40:57.591Z,19.30
2017-09-24T05:44:23.085Z,19.30
2017-09-24T05:47:48.823Z,19.20
2017-09-24T05:51:14.087Z,19.30
2017-09-24T05:54:40.415Z,19.20
2017-09-24T05:58:06.090Z,19.20
2017-09-24T06:01:31.659Z,19.20
2017-09-24T06:04:57.947Z,19.20
2017-09-24T06:08:23.454Z,19.20
2017-09-24T06:11:49.270Z,19.30
2017-09-24T06:15:15.450Z,19.50
2017-09-24T06:18:41.210Z,19.60
2017-09-24T06:22:08.203Z,19.70
2017-09-24T06:25:35.177Z,19.90
2017-09-24T06:29:01.314Z,20.00
2017-09-24T06:32:26.726Z,20.10
2017-09-24T06:35:52.137Z,20.30
2017-09-24T06:39:17.720Z,20.40
2017-09-24T06:42:43.241Z,20.60
2017-09-24T06:46:09.853Z,20.80
2017-09-24T06:49:36.990Z,20.80
2017-09-24T06:53:03.499Z,20.90
2017-09-24T06:56:29.064Z,21.00
2017-09-24T06:59:54.381Z,21.10
2017-09-24T07:03:20.713Z,21.30
2017-09-24T07:06:46.044Z,21.30
2017-09-24T07:10:12.940Z,21.30
2017-09-24T07:13:38.564Z,21.40
2017-09-24T07:17:03.873Z,21.50
2017-09-24T07:20:29.413Z,21.60
2017-09-24T07:23:55.485Z,21.70
2017-09-24T07:27:21.494Z,21.80
2017-09-24T07:30:47.151Z,21.90
2017-09-24T07:34:13.668Z,22.00
2017-09-24T07:38:26.393Z,22.00
2017-09-24T07:41:57.696Z,22.10
2017-09-24T07:45:23.157Z,22.10
2017-09-24T07:48:48.375Z,22.20
2017-09-24T07:52:14.078Z,22.30
2017-09-24T07:55:39.573Z,22.60
2017-09-24T07:59:07.149Z,22.70
2017-09-24T08:02:36.160Z,22.70
2017-09-24T08:06:01.940Z,23.00
2017-09-24T08:09:32.129Z,23.30
2017-09-24T08:12:57.578Z,23.40
2017-09-24T08:16:22.965Z,23.50
2017-09-24T08:19:48.635Z,23.60
2017-09-24T08:23:14.032Z,23.70
2017-09-24T08:26:39.534Z,23.90
2017-09-24T08:30:04.862Z,24.00
2017-09-24T08:33:30.340Z,24.10
2017-09-24T08:36:55.692Z,24.00
2017-09-24T08:40:20.889Z,24.00
2017-09-24T08:43:46.481Z,24.00
2017-09-24T08:47:11.912Z,24.20
2017-09-24T08:50:37.690Z,24.30
2017-09-24T08:54:07.901Z,24.30
2017-09-24T08:57:33.583Z,24.40
2017-09-24T09:01:03.409Z,24.50
2017-09-24T09:04:28.998Z,24.50
2017-09-24T09:07:57.076Z,24.50
2017-09-24T09:11:22.624Z,24.50
2017-09-24T09:14:47.790Z,24.60
2017-09-24T09:18:17.614Z,24.60
2017-09-24T09:21:47.604Z,24.70
2017-09-24T09:25:13.914Z,24.80
2017-09-24T09:28:39.409Z,24.80
2017-09-24T09:32:05.926Z,24.80
2017-09-24T09:35:32.581Z,24.80
2017-09-24T09:39:00.514Z,24.80
2017-09-24T09:42:26.039Z,24.80
2017-09-24T09:46:00.690Z,24.80
2017-09-24T09:49:27.567Z,24.80
2017-09-24T09:52:55.012Z,24.80
2017-09-24T09:59:55.869Z,24.70
2017-09-24T10:03:25.488Z,24.50
2017-09-24T10:07:07.916Z,24.40
2017-09-24T10:10:40.650Z,24.30
2017-09-24T10:14:06.309Z,24.30
2017-09-24T10:17:31.764Z,24.20
2017-09-24T10:20:57.351Z,24.30
2017-09-24T10:24:22.743Z,24.20
2017-09-24T10:27:48.377Z,24.20
2017-09-24T10:31:22.676Z,24.20
2017-09-24T10:34:47.947Z,24.20
2017-09-24T10:38:18.722Z,24.10
2017-09-24T10:54:44.766Z,24.20
2017-09-24T10:58:12.999Z,24.10
2017-09-24T11:01:42.867Z,24.00
2017-09-24T11:05:09.994Z,23.90
2017-09-24T11:08:35.466Z,23.80
2017-09-24T11:12:01.221Z,23.80
2017-09-24T11:15:27.605Z,23.70
2017-09-24T11:18:53.025Z,23.70
2017-09-24T11:22:20.426Z,23.60
2017-09-24T11:25:47.493Z,23.50
2017-09-24T11:29:14.420Z,23.40
2017-09-24T11:32:39.660Z,23.40
2017-09-24T11:36:06.324Z,23.50
2017-09-24T11:39:36.316Z,23.50
2017-09-24T11:43:02.119Z,23.60
2017-09-24T11:46:31.529Z,23.60
2017-09-24T11:49:56.964Z,23.70
2017-09-24T11:53:22.108Z,23.70
2017-09-24T11:56:48.119Z,23.70
2017-09-24T12:00:13.474Z,24.00
2017-09-24T12:03:39.644Z,24.10
2017-09-24T12:10:37.052Z,24.20
2017-09-24T12:14:03.507Z,24.20
2017-09-24T12:17:31.845Z,24.20
2017-09-24T12:20:56.954Z,24.20
2017-09-24T12:24:22.130Z,24.20
2017-09-24T12:27:47.437Z,24.20
2017-09-24T12:31:13.389Z,24.10
2017-09-24T12:34:39.512Z,24.00
2017-09-24T12:38:04.708Z,23.90
2017-09-24T12:41:29.831Z,23.80
2017-09-24T12:44:55.371Z,23.70
2017-09-24T12:48:20.534Z,23.70
2017-09-24T12:51:46.622Z,23.50
2017-09-24T12:55:12.571Z,23.50
2017-09-24T12:58:39.894Z,23.50
2017-09-24T13:02:05.095Z,23.40
2017-09-24T13:05:30.418Z,23.40
2017-09-24T13:08:55.707Z,23.40
2017-09-24T13:12:21.624Z,23.50
2017-09-24T13:15:46.702Z,23.40
2017-09-24T13:19:11.999Z,23.50
2017-09-24T13:22:37.211Z,23.50
2017-09-24T13:26:02.544Z,23.40
2017-09-24T13:29:27.811Z,23.40
2017-09-24T13:32:54.229Z,23.40
2017-09-24T13:36:19.682Z,23.40
2017-09-24T13:39:45.838Z,23.30
2017-09-24T13:43:10.979Z,23.30
2017-09-24T13:46:36.155Z,23.40
2017-09-24T13:50:02.102Z,23.40
2017-09-24T13:53:27.247Z,23.40
2017-09-24T13:56:52.383Z,23.40
2017-09-24T14:00:18.423Z,23.40
2017-09-24T14:03:47.080Z,23.50
2017-09-24T14:07:13.031Z,23.60
2017-09-24T14:10:38.163Z,23.60
2017-09-24T14:14:03.311Z,23.70
2017-09-24T14:17:28.552Z,23.80
2017-09-24T14:20:54.509Z,23.50
2017-09-24T14:24:19.663Z,23.50
2017-09-24T14:27:44.897Z,23.30
2017-09-24T14:31:11.344Z,23.10
2017-09-24T14:34:38.427Z,23.10
2017-09-24T14:38:03.710Z,23.00
2017-09-24T14:41:28.963Z,23.30
2017-09-24T14:44:54.080Z,23.40
2017-09-24T14:48:19.455Z,23.40
2017-09-24T14:51:46.133Z,23.50
2017-09-24T14:55:12.701Z,23.40
2017-09-24T14:58:39.514Z,23.20
2017-09-24T15:02:05.208Z,23.20
2017-09-24T15:05:31.597Z,23.30
2017-09-24T15:08:56.745Z,23.40
2017-09-24T15:12:23.488Z,23.40
2017-09-24T15:15:50.173Z,23.30
2017-09-24T15:19:15.413Z,23.30
2017-09-24T15:22:40.979Z,23.40
2017-09-24T15:26:06.698Z,23.30
2017-09-24T15:29:35.725Z,23.20
2017-09-24T15:33:01.267Z,23.20
2017-09-24T15:36:27.196Z,23.30
2017-09-24T15:39:52.905Z,23.30
2017-09-24T15:43:18.075Z,23.20
2017-09-24T15:47:02.743Z,23.10
2017-09-24T15:54:10.663Z,22.80
2017-09-24T15:57:55.996Z,22.80
2017-09-24T16:01:23.137Z,22.70
2017-09-24T16:09:25.061Z,22.60
2017-09-24T16:12:54.413Z,22.50
2017-09-24T16:16:29.447Z,22.50
2017-09-24T16:19:54.826Z,22.40
2017-09-24T16:23:25.892Z,22.40
2017-09-24T16:26:56.857Z,22.30
2017-09-24T16:30:29.905Z,22.30
2017-09-24T16:33:57.993Z,22.20
2017-09-24T16:37:23.327Z,22.20
2017-09-24T16:40:48.516Z,22.20
2017-09-24T16:44:16.660Z,22.10
2017-09-24T16:47:44.347Z,22.00
2017-09-24T16:51:10.274Z,22.00
2017-09-24T16:54:35.559Z,22.00
2017-09-24T16:58:01.411Z,21.90
2017-09-24T17:01:26.656Z,21.90
2017-09-24T17:04:53.553Z,21.80
2017-09-24T17:08:20.532Z,21.80
2017-09-24T17:11:45.995Z,21.70
2017-09-24T17:15:12.088Z,21.70
2017-09-24T17:18:38.599Z,21.60
2017-09-24T17:22:04.022Z,21.60
2017-09-24T17:25:30.369Z,21.50
2017-09-24T17:28:56.931Z,21.40
2017-09-24T17:32:23.742Z,21.40
2017-09-24T17:35:49.232Z,21.40
2017-09-24T17:39:17.306Z,21.40
2017-09-24T17:42:47.038Z,21.30
2017-09-24T17:46:15.632Z,21.30
2017-09-24T17:49:44.530Z,21.30
2017-09-24T17:53:13.603Z,21.30
2017-09-24T17:56:43.378Z,21.30
2017-09-24T18:00:11.801Z,21.60
2017-09-24T18:03:40.440Z,21.70
2017-09-24T18:07:14.240Z,22.00
2017-09-24T18:10:43.092Z,22.10
2017-09-24T18:14:31.211Z,22.20
2017-09-24T18:18:03.321Z,22.70
2017-09-24T18:21:30.705Z,22.70
2017-09-24T18:24:59.114Z,22.80
2017-09-24T18:28:26.149Z,22.70
2017-09-24T18:31:51.509Z,22.80
2017-09-24T18:35:22.617Z,22.80
2017-09-24T18:38:49.033Z,23.00
2017-09-24T18:42:15.976Z,23.40
2017-09-24T18:45:42.637Z,23.30
2017-09-24T18:49:08.420Z,23.40
2017-09-24T18:52:33.762Z,23.50
2017-09-24T18:55:59.080Z,23.40
2017-09-24T18:59:24.868Z,23.40
2017-09-24T19:02:50.845Z,23.30
2017-09-24T19:06:32.764Z,23.30
2017-09-24T19:09:59.138Z,23.30
2017-09-24T19:13:25.288Z,23.20
2017-09-24T19:16:50.640Z,23.20
2017-09-24T19:20:16.016Z,23.10
2017-09-24T19:23:43.133Z,23.00
2017-09-24T19:27:09.611Z,23.00
2017-09-24T19:30:36.170Z,22.90
2017-09-24T19:34:01.625Z,22.90
2017-09-24T19:37:26.897Z,22.80
2017-09-24T19:40:53.316Z,22.80
2017-09-24T19:44:19.697Z,22.80
2017-09-24T19:47:45.004Z,22.90
2017-09-24T19:51:10.316Z,23.00
2017-09-24T19:54:35.652Z,23.10
2017-09-24T19:58:00.972Z,23.10
2017-09-24T20:01:26.196Z,23.10
2017-09-24T20:04:51.351Z,23.10
2017-09-24T20:08:16.496Z,23.20
2017-09-24T20:11:45.400Z,23.20
2017-09-24T20:15:11.823Z,23.20
2017-09-24T20:18:38.923Z,23.20
2017-09-24T20:22:05.604Z,23.20
2017-09-24T20:25:39.384Z,23.00
2017-09-24T20:29:05.499Z,22.80
2017-09-24T20:32:31.185Z,22.80
2017-09-24T20:36:07.010Z,22.70
2017-09-24T20:39:47.834Z,22.60
2017-09-24T20:43:23.013Z,22.60
2017-09-24T20:47:04.323Z,22.50
2017-09-24T20:50:46.202Z,22.40
2017-09-24T20:54:36.142Z,22.40
2017-09-24T20:58:11.404Z,22.30
2017-09-24T21:01:37.676Z,22.30
2017-09-24T21:05:16.349Z,22.20
2017-09-24T21:08:58.008Z,22.20
2017-09-24T21:12:28.090Z,22.20
2017-09-24T21:15:54.869Z,22.10
2017-09-24T21:19:38.813Z,22.10
2017-09-24T21:23:08.142Z,22.00
2017-09-24T21:26:36.006Z,21.90
2017-09-24T21:30:03.430Z,21.90
2017-09-24T21:33:31.632Z,21.80
2017-09-24T21:37:09.601Z,21.80
2017-09-24T21:40:40.228Z,21.70
2017-09-24T21:44:08.596Z,21.70
2017-09-24T21:47:45.836Z,21.60
2017-09-24T21:51:16.021Z,21.60
2017-09-24T21:54:44.681Z,21.50
2017-09-24T21:58:11.898Z,21.40
2017-09-24T22:01:39.141Z,21.40
2017-09-24T22:05:07.330Z,21.30
2017-09-24T22:08:34.332Z,21.30
2017-09-24T22:16:00.356Z,21.20
2017-09-24T22:19:31.117Z,21.10
2017-09-24T22:22:58.278Z,21.10
2017-09-24T22:26:24.144Z,21.10
2017-09-24T22:29:52.456Z,21.00
2017-09-24T22:33:19.247Z,21.00
2017-09-24T22:36:49.992Z,21.00
2017-09-24T22:40:17.941Z,20.90
2017-09-24T22:43:45.265Z,20.90
2017-09-24T22:47:12.117Z,20.90
2017-09-24T22:50:41.861Z,20.80
2017-09-24T22:54:07.361Z,20.80
2017-09-24T22:57:36.759Z,20.80
2017-09-24T23:01:04.531Z,20.80
2017-09-24T23:04:31.239Z,20.80
2017-09-24T23:07:57.308Z,20.80
2017-09-24T23:11:32.950Z,20.80
2017-09-24T23:14:59.602Z,20.70
2017-09-24T23:18:27.615Z,20.70
2017-09-24T23:21:56.720Z,20.60
2017-09-24T23:25:23.915Z,20.60
2017-09-24T23:28:49.688Z,20.60
2017-09-24T23:32:16.797Z,20.70
2017-09-24T23:35:42.473Z,20.60
2017-09-24T23:39:09.121Z,20.60
2017-09-24T23:42:34.735Z,20.60
2017-09-24T23:46:04.237Z,20.60
2017-09-24T23:49:29.877Z,20.50
2017-09-24T23:52:55.481Z,20.50
2017-09-24T23:56:21.599Z,20.50
2017-09-24T23:59:49.614Z,20.40
